Airfield :
LOGIN :

Register | Disclaimer

   EN    FR    IT 

 










Legend :    VFR   Marginal VFR   IFR   Intensive IFR   Very Intensive IFR
Visi :
Ceiling :
>= 8 km
>= 3000ft
5 to 8 km
1000 to 3000 ft
1500m to 5 km
500 to 1000 ft
800 to 1500m
200 to 500 ft
< 800m
< 200 ft
Symbols :   Thunderstorms  Fog  Heavy snow  Heavy precipitations  Wind > 20 kt
SIGMETs :     Misc.  Thunderstorms  Icing  Turbulence  Mountain Waves  Volcanic Ashes






- Airport Elevation : 313 ft
- IATA code : LEH


LFOH - Le Havre Octeville

CURRENT METAR :
  • 170000Z AUTO 24017KT CAVOK 08/05 Q1012

EXPIRED METARs :
  • 162330Z AUTO 24018KT CAVOK 08/05 Q1012
  • 162300Z AUTO 24018KT 9999 FEW032 08/05 Q1012
  • 162230Z AUTO 24020KT CAVOK 08/05 Q1011
  • 162200Z AUTO 25021KT 9999 FEW032 BKN220 09/06 Q1010
  • 162130Z AUTO 25021KT CAVOK 09/06 Q1010

TAF AMD TAF LFOH
Valid from the 16 at 16:00 until the 17 at 12:00 UTC


161652Z 1616/1712 20025G43KT 9999 OVC020
TEMPO 1616/1617 32015G25KT 3000 RA OVC003 SCT030CB
FM161700 27020G30KT 9999 BKN030
TEMPO 1622/1624 3000 SHRA BKN015TCU
BECMG 1702/1704 24015KT
ATIS : +33 2 35 54 64 93



MET'MAP, your aeronautical weather chart ! - Copyright ORBIFLY December 2007 - Disclaimer

ORBIFLY MET'MAP TEAM :

Programming & Development : Alexandra Zaïnal
Concept & original design : Baudouin d'Aumeries
Assistance for programming : Marc-Olivier Méhu
Technical & hardware support : Manuel Goepfert

Contact : metmap@orbifly.com




SOURCES & CREDITS :

   NOAA